Terminal Aerodrome Forecast
Issued by NWS

Home | Current Version | Previous Version | Graphics & Text | Print | Product List | Glossary On
Versions: 1 2 3 4 5 6 7 8 9 10 11 12 13 14 15 16 17
000
FTUS42 KMHX 311443 AAB
TAFISO
TAF AMD
KISO 311443Z 3115/0112 07005KT 5SM SHRA BKN045 OVC070
      TEMPO 3115/3116 2SM SHRA BKN007 BKN015 BKN025
     FM312000 15005KT P6SM VCSH BKN030
      TEMPO 0102/0106 4SM BR BKN010
     FM010600 00000KT 1SM BR OVC003
      AMD LTD TO CLD VIS AND WIND=

USA.gov is the U.S. government's official web portal to all federal, state and local government web resources and services.